CheckWX is a tool to help pilots better visualize weather data.  It is not intended as a substitute for an official pre-flight weather briefing.

12:40:32 UTC

KUES METAR
Waukesha County Airport
Waukesha, Wisconsin, USA
Current

56 mins ago

KUES 261145Z 28004KT 10SM SKC 18/15 A3003
Observed
Jun-26 @ 11:45 UTC
Wind
  • 280° at 4 KTS
Visibility
10 SM
Flight Rules
VFR
Cloud Levels
  • Clear skies
Temperature
18°C / 64°F
Dewpoint
15°C / 59°F
Humidity
83%
Altimeter
30.03" Hg
Pressure
1016.92 hPa
Previous

2 hours ago

KUES 261045Z 26004KT 10SM SKC 16/14 A3002
Observed
Jun-26 @ 10:45 UTC
Wind
  • 260° at 4 KTS
Visibility
10 SM
Flight Rules
VFR
Cloud Levels
  • Clear skies
Temperature
16°C / 61°F
Dewpoint
14°C / 57°F
Humidity
88%
Altimeter
30.02" Hg
Pressure
1016.62 hPa
Previous

2 hours ago

KUES 261015Z AUTO 24003KT 10SM CLR 15/13 A3001 RMK AO2
Observed
Jun-26 @ 10:15 UTC
Wind
  • 240° at 3 KTS
Visibility
10 SM
Flight Rules
VFR
Cloud Levels
  • Clear skies
Temperature
15°C / 59°F
Dewpoint
13°C / 55°F
Humidity
88%
Altimeter
30.01" Hg
Pressure
1016.22 hPa